Time;durP1;ratioP1;P1;durP2;ratioP2;P2;SDS_P1;SDS_P2;PMS_P1;PMS_P2;Temp;Humidity;BMP_temperature;BMP_pressure;BME280_temperature;BME280_humidity;BME280_pressure;Samples;Min_cycle;Max_cycle;Signal;HPM_P1;HPM_P2
2021/09/09 00:01:27;;;;;;;5.53;4.80;;;;;;;23.21;41.96;94946.28;5002398;28;99306;-50
2021/09/09 00:03:52;;;;;;;4.38;3.95;;;;;;;23.26;41.98;94947.81;5001006;28;96786;-47
2021/09/09 00:06:18;;;;;;;4.30;3.90;;;;;;;23.29;41.79;94950.53;5001542;28;97100;-46
2021/09/09 00:08:43;;;;;;;3.60;3.30;;;;;;;23.26;41.83;94951.34;5002274;28;102202;-47
2021/09/09 00:11:09;;;;;;;3.33;3.03;;;;;;;23.33;41.84;94945.00;5000343;28;99239;-48
2021/09/09 00:13:34;;;;;;;3.58;3.28;;;;;;;23.28;41.76;94948.97;5000767;28;96750;-48
2021/09/09 00:15:59;;;;;;;3.95;3.55;;;;;;;23.30;41.97;94954.09;5002014;28;96925;-51
2021/09/09 00:18:25;;;;;;;4.65;3.97;;;;;;;23.32;41.97;94959.97;4999948;28;102972;-49
2021/09/09 00:20:51;;;;;;;4.63;4.22;;;;;;;23.27;42.00;94952.91;5001885;28;97340;-50
2021/09/09 00:23:16;;;;;;;4.90;4.07;;;;;;;23.19;42.15;94951.41;5001649;28;96801;-43
2021/09/09 00:25:41;;;;;;;5.05;4.55;;;;;;;23.24;42.07;94951.78;4992411;28;96957;-49
2021/09/09 00:28:07;;;;;;;5.05;4.55;;;;;;;23.26;41.97;94956.09;4991353;28;104360;-49
2021/09/09 00:30:32;;;;;;;6.65;5.57;;;;;;;23.31;41.95;94947.38;4991671;28;99168;-50
2021/09/09 00:32:58;;;;;;;6.28;5.43;;;;;;;23.21;41.99;94938.00;4991135;28;96846;-58
2021/09/09 00:35:23;;;;;;;5.80;5.30;;;;;;;23.16;42.10;94941.22;4991718;28;96779;-51
2021/09/09 00:37:48;;;;;;;5.63;5.10;;;;;;;23.20;42.23;94947.47;4994114;28;97586;-46
2021/09/09 00:40:14;;;;;;;4.97;4.47;;;;;;;23.18;42.21;94941.59;4991233;28;98567;-47
2021/09/09 00:42:40;;;;;;;5.47;4.60;;;;;;;23.18;42.31;94938.84;4991362;28;96914;-47
2021/09/09 00:45:06;;;;;;;5.20;4.65;;;;;;;23.17;42.40;94942.78;4991846;28;96953;-50
2021/09/09 00:47:31;;;;;;;5.05;4.63;;;;;;;23.09;42.44;94945.59;4991266;28;99414;-51
2021/09/09 00:49:57;;;;;;;5.53;5.00;;;;;;;23.06;42.55;94942.88;4991358;28;99490;-49
2021/09/09 00:52:22;;;;;;;9.85;4.95;;;;;;;23.04;42.75;94940.53;4994158;28;96811;-50
2021/09/09 00:54:48;;;;;;;6.32;5.55;;;;;;;22.97;42.67;94937.03;4994025;28;96926;-49
2021/09/09 00:57:14;;;;;;;5.95;5.45;;;;;;;23.08;42.75;94929.47;4995545;28;103017;-46
2021/09/09 00:59:40;;;;;;;5.82;5.22;;;;;;;23.16;42.33;94941.22;4997079;28;99326;-45
2021/09/09 01:02:05;;;;;;;5.80;5.30;;;;;;;23.12;42.69;94940.47;4994755;28;96575;-45
2021/09/09 01:04:31;;;;;;;6.07;5.47;;;;;;;23.12;42.84;94937.72;4995006;28;97046;-47
2021/09/09 01:06:56;;;;;;;6.35;5.75;;;;;;;23.19;42.53;94937.63;4993209;28;99106;-48
2021/09/09 01:09:22;;;;;;;6.57;5.78;;;;;;;23.24;42.35;94937.22;4994460;28;99357;-44
2021/09/09 01:11:48;;;;;;;6.88;6.18;;;;;;;23.07;42.68;94934.22;4994378;28;97014;-46
2021/09/09 01:14:15;;;;;;;6.55;5.78;;;;;;;23.12;42.47;94934.97;5002987;28;97015;-45
2021/09/09 01:16:40;;;;;;;6.57;5.95;;;;;;;23.13;42.61;94936.53;4994370;28;99699;-50
2021/09/09 01:19:06;;;;;;;7.63;6.68;;;;;;;23.19;42.53;94940.41;4998246;28;99641;-45
2021/09/09 01:21:32;;;;;;;8.25;6.18;;;;;;;23.21;42.51;94940.78;5005610;28;96974;-49
2021/09/09 01:23:57;;;;;;;8.35;5.88;;;;;;;23.19;42.46;94940.41;5011350;28;96953;-50
2021/09/09 01:26:23;;;;;;;6.53;5.90;;;;;;;23.12;42.89;94935.72;5013343;28;99655;-48
2021/09/09 01:28:49;;;;;;;6.97;6.28;;;;;;;23.16;42.52;94935.69;5014249;28;97785;-46
2021/09/09 01:31:14;;;;;;;7.00;6.30;;;;;;;22.96;43.13;94933.53;5012984;28;96827;-44
2021/09/09 01:33:40;;;;;;;7.43;5.90;;;;;;;23.06;42.88;94932.66;5013586;28;97764;-46
2021/09/09 01:36:05;;;;;;;5.93;5.43;;;;;;;23.06;43.07;94932.66;5014047;28;98884;-46
2021/09/09 01:38:31;;;;;;;5.10;4.70;;;;;;;23.04;42.93;94940.53;5003137;28;106351;-47
2021/09/09 01:40:56;;;;;;;5.10;4.70;;;;;;;23.08;42.92;94935.78;4994040;28;96833;-46
2021/09/09 01:43:21;;;;;;;4.95;4.53;;;;;;;23.05;42.64;94942.09;4994667;28;96973;-49
2021/09/09 01:45:47;;;;;;;4.70;4.30;;;;;;;22.98;43.05;94944.13;4993867;28;98963;-51
2021/09/09 01:48:12;;;;;;;4.78;4.28;;;;;;;23.03;42.77;94938.97;4993737;28;99020;-53
2021/09/09 01:50:38;;;;;;;4.47;4.07;;;;;;;23.06;42.80;94938.16;4993702;28;96676;-52
2021/09/09 01:53:03;;;;;;;4.80;4.40;;;;;;;23.12;42.84;94938.47;4993979;28;96951;-46
2021/09/09 01:55:29;;;;;;;6.28;5.68;;;;;;;23.15;42.84;94942.41;4993488;28;98075;-47
2021/09/09 01:57:54;;;;;;;6.25;5.65;;;;;;;23.11;42.78;94939.66;4993682;28;99419;-46
2021/09/09 02:00:20;;;;;;;5.55;5.05;;;;;;;23.20;42.52;94941.97;4993785;28;97312;-48
2021/09/09 02:02:45;;;;;;;5.18;4.68;;;;;;;23.13;42.71;94931.78;4993749;28;96898;-45
2021/09/09 02:05:11;;;;;;;5.30;4.88;;;;;;;23.04;42.86;94929.50;4992557;28;104737;-44
2021/09/09 02:07:37;;;;;;;5.40;4.90;;;;;;;23.13;42.82;94942.03;4994003;28;99255;-45
2021/09/09 02:10:03;;;;;;;5.45;4.95;;;;;;;23.10;42.66;94932.59;4993765;28;96975;-50
2021/09/09 02:12:28;;;;;;;5.57;4.90;;;;;;;22.97;43.00;94929.59;4993770;28;96965;-48
2021/09/09 02:14:54;;;;;;;6.60;5.53;;;;;;;23.00;43.20;94931.53;4992784;28;99797;-47
2021/09/09 02:17:19;;;;;;;7.75;5.38;;;;;;;22.99;43.07;94927.19;4993367;28;99165;-48
2021/09/09 02:19:44;;;;;;;6.80;5.57;;;;;;;23.12;43.00;94930.22;4993575;28;96640;-46
2021/09/09 02:22:10;;;;;;;5.90;5.15;;;;;;;23.07;42.96;94934.22;4993768;28;96848;-48
2021/09/09 02:24:36;;;;;;;4.95;4.55;;;;;;;23.10;43.01;94938.91;4992864;28;105911;-48
2021/09/09 02:27:01;;;;;;;4.80;4.40;;;;;;;23.17;42.94;94937.25;4993676;28;99117;-48
2021/09/09 02:29:27;;;;;;;5.28;4.70;;;;;;;23.12;42.88;94932.19;5007037;28;96796;-46
2021/09/09 02:31:52;;;;;;;5.93;5.32;;;;;;;23.10;42.88;94933.41;5001388;28;97000;-48
2021/09/09 02:34:21;;;;;;;6.30;5.57;;;;;;;23.14;42.89;94935.34;5005384;28;99368;-48
2021/09/09 02:36:46;;;;;;;6.05;5.45;;;;;;;23.07;43.14;94934.22;5000997;28;99061;-51
2021/09/09 02:39:11;;;;;;;6.45;5.85;;;;;;;23.01;43.29;94935.03;5009347;28;96663;-49
2021/09/09 02:41:37;;;;;;;7.88;6.47;;;;;;;23.03;43.46;94927.94;5013427;28;97544;-45
2021/09/09 02:44:02;;;;;;;8.02;6.18;;;;;;;23.13;43.19;94931.78;5012964;28;99378;-48
2021/09/09 02:46:28;;;;;;;7.05;5.72;;;;;;;23.09;43.04;94926.31;5012540;28;99995;-50
2021/09/09 02:48:53;;;;;;;6.30;5.70;;;;;;;23.21;42.98;94932.50;5013175;28;96864;-46
2021/09/09 02:51:19;;;;;;;5.97;5.32;;;;;;;23.25;42.76;94933.28;5012997;28;96929;-43
2021/09/09 02:53:44;;;;;;;6.35;5.85;;;;;;;23.26;42.68;94942.31;5012069;28;106986;-45
2021/09/09 02:56:10;;;;;;;7.60;6.78;;;;;;;23.27;42.79;94936.38;5013426;28;97366;-46
2021/09/09 02:58:35;;;;;;;9.10;7.72;;;;;;;23.22;42.97;94939.59;5013018;28;96885;-46
2021/09/09 03:01:01;;;;;;;7.72;6.97;;;;;;;22.97;43.23;94932.34;5012726;28;97094;-46
2021/09/09 03:03:26;;;;;;;8.18;7.38;;;;;;;22.89;43.39;94939.09;5006968;28;99691;-47
2021/09/09 03:05:51;;;;;;;8.50;7.68;;;;;;;22.80;43.60;94932.09;5002882;28;102012;-44
2021/09/09 03:08:17;;;;;;;9.77;8.77;;;;;;;22.75;43.44;94934.50;5001026;28;96618;-48
2021/09/09 03:10:42;;;;;;;10.43;9.32;;;;;;;22.71;43.63;94934.53;5002696;28;96942;-47
2021/09/09 03:13:08;;;;;;;10.30;9.20;;;;;;;22.67;43.80;94933.78;5002627;28;99120;-45
2021/09/09 03:15:33;;;;;;;10.43;9.32;;;;;;;22.65;43.88;94930.66;5011726;28;98391;-52
2021/09/09 03:17:58;;;;;;;11.77;10.38;;;;;;;22.61;43.97;94932.66;5011275;28;96823;-47
2021/09/09 03:20:24;;;;;;;11.32;10.13;;;;;;;22.60;44.03;94936.59;4981948;28;96968;-49
2021/09/09 03:22:49;;;;;;;12.73;10.85;;;;;;;22.58;44.17;94933.47;4981325;28;100704;-44
2021/09/09 03:25:16;;;;;;;13.25;11.18;;;;;;;22.57;44.08;94931.91;4977361;28;99325;-46
2021/09/09 03:27:42;;;;;;;11.65;10.40;;;;;;;22.54;44.06;94935.47;4972524;28;97218;-49
2021/09/09 03:30:07;;;;;;;12.30;11.00;;;;;;;22.52;44.34;94922.09;4972649;28;97502;-46
2021/09/09 03:32:33;;;;;;;12.63;11.10;;;;;;;22.52;44.44;94935.09;4971108;28;99563;-45
2021/09/09 03:34:58;;;;;;;10.95;9.85;;;;;;;22.49;44.37;94934.72;4970158;28;99396;-51
2021/09/09 03:37:24;;;;;;;11.27;10.13;;;;;;;22.52;44.30;94932.34;4972016;28;97648;-43
2021/09/09 03:39:49;;;;;;;12.25;10.25;;;;;;;22.50;44.30;94930.78;4986396;28;96891;-43
2021/09/09 03:42:14;;;;;;;13.52;11.35;;;;;;;22.48;44.46;94933.16;4989459;28;99595;-40
2021/09/09 03:44:40;;;;;;;12.90;10.80;;;;;;;22.49;44.55;94928.41;4987804;28;103673;-40
2021/09/09 03:47:05;;;;;;;13.02;11.73;;;;;;;22.48;44.63;94926.84;4988715;28;97018;-40
2021/09/09 03:49:31;;;;;;;13.77;12.30;;;;;;;22.47;44.65;94928.84;4990215;28;97122;-41
2021/09/09 03:51:56;;;;;;;13.48;11.90;;;;;;;22.47;44.83;94931.59;4989307;28;100705;-42
2021/09/09 03:54:22;;;;;;;14.88;12.88;;;;;;;22.46;44.82;94930.03;4989923;28;99633;-40
2021/09/09 03:56:47;;;;;;;13.77;12.32;;;;;;;22.47;44.71;94930.78;4990197;28;97074;-41
2021/09/09 03:59:13;;;;;;;14.38;12.43;;;;;;;22.43;44.73;94925.28;4991870;28;96880;-42
2021/09/09 04:01:38;;;;;;;14.77;12.43;;;;;;;22.45;44.74;94936.72;4991797;28;99471;-59
2021/09/09 04:04:03;;;;;;;16.02;12.45;;;;;;;22.46;44.71;94935.53;4991953;28;98239;-60
2021/09/09 04:06:29;;;;;;;14.38;11.27;;;;;;;22.46;44.79;94934.72;4992185;28;96983;-59
2021/09/09 04:08:54;;;;;;;13.32;11.10;;;;;;;22.45;44.68;94933.97;4992479;28;96921;-60
2021/09/09 04:11:20;;;;;;;14.75;12.10;;;;;;;22.45;44.75;94933.97;4992065;28;98014;-61
2021/09/09 04:13:45;;;;;;;14.60;12.05;;;;;;;22.44;44.76;94935.16;4991603;28;97593;-61
2021/09/09 04:16:10;;;;;;;12.85;11.18;;;;;;;22.44;44.75;94932.41;4991583;28;96720;-59
2021/09/09 04:18:36;;;;;;;14.30;11.55;;;;;;;22.43;44.90;94930.78;4991963;28;96982;-60
2021/09/09 04:21:01;;;;;;;13.57;11.98;;;;;;;22.42;44.78;94923.72;4991608;28;99719;-59
2021/09/09 04:23:27;;;;;;;16.25;12.45;;;;;;;22.44;44.85;94932.41;4991501;28;99471;-60
2021/09/09 04:25:52;;;;;;;16.15;14.18;;;;;;;22.44;44.87;94937.91;4991968;28;96778;-60
2021/09/09 04:28:18;;;;;;;14.95;12.95;;;;;;;22.45;45.01;94942.22;4992543;28;96909;-60
2021/09/09 04:30:43;;;;;;;17.40;13.43;;;;;;;22.57;44.84;94937.41;4995369;28;99793;-60
2021/09/09 04:33:09;;;;;;;12.98;10.88;;;;;;;22.71;44.51;94940.03;4994808;28;98949;-60
2021/09/09 04:35:34;;;;;;;11.65;9.43;;;;;;;22.66;44.89;94932.22;4995528;28;96669;-60
2021/09/09 04:37:59;;;;;;;9.63;8.65;;;;;;;22.68;44.81;94929.81;4995413;28;96922;-62
2021/09/09 04:40:25;;;;;;;8.90;7.78;;;;;;;22.61;44.90;94918.91;4994645;28;99726;-59
2021/09/09 04:42:50;;;;;;;8.88;6.53;;;;;;;22.66;45.12;94934.97;4995137;28;99142;-60
2021/09/09 04:45:16;;;;;;;7.95;5.57;;;;;;;22.68;45.02;94934.56;4995582;28;96656;-60
2021/09/09 04:47:41;;;;;;;5.40;4.93;;;;;;;22.63;45.20;94931.06;4995192;28;96857;-61
2021/09/09 04:50:07;;;;;;;5.32;4.63;;;;;;;22.68;44.97;94924.31;4995279;28;98720;-61
2021/09/09 04:52:33;;;;;;;3.83;3.53;;;;;;;22.69;45.26;94919.63;4995071;28;99709;-62
2021/09/09 04:54:58;;;;;;;3.97;3.67;;;;;;;22.68;45.29;94924.31;4993880;28;96994;-60
2021/09/09 04:57:24;;;;;;;3.03;2.75;;;;;;;22.64;45.44;94918.84;4995677;28;97003;-60
2021/09/09 04:59:49;;;;;;;3.00;2.80;;;;;;;22.64;45.37;94918.09;4993585;28;99605;-60
2021/09/09 05:02:15;;;;;;;3.50;2.38;;;;;;;22.62;45.85;94920.47;4994549;28;99330;-61
2021/09/09 05:04:40;;;;;;;2.20;2.10;;;;;;;22.75;45.22;94929.00;4992663;28;96889;-63
2021/09/09 05:07:06;;;;;;;1.90;1.80;;;;;;;22.77;45.31;94916.38;4994975;28;96972;-61
2021/09/09 05:09:31;;;;;;;2.03;1.83;;;;;;;22.85;45.20;94916.31;4993383;28;99684;-59
2021/09/09 05:11:57;;;;;;;1.73;1.58;;;;;;;22.93;45.02;94920.56;4992281;28;99586;-63
2021/09/09 05:14:22;;;;;;;1.85;1.75;;;;;;;22.85;45.14;94921.81;4992732;28;96959;-60
2021/09/09 05:16:48;;;;;;;1.70;1.60;;;;;;;22.80;45.34;94921.06;4992871;28;97126;-60
2021/09/09 05:19:13;;;;;;;1.40;1.30;;;;;;;22.92;45.03;94919.81;4992562;28;99912;-59
2021/09/09 05:21:39;;;;;;;1.25;1.25;;;;;;;22.92;45.22;94916.25;4992731;28;99394;-61
2021/09/09 05:24:05;;;;;;;1.27;1.17;;;;;;;22.90;45.31;94913.91;4992935;28;97365;-63
2021/09/09 05:26:30;;;;;;;1.10;1.10;;;;;;;22.88;45.11;94916.28;4993421;28;96949;-59
2021/09/09 05:28:56;;;;;;;1.00;1.00;;;;;;;22.88;45.15;94910.00;4993832;28;100014;-62
2021/09/09 05:31:21;;;;;;;1.17;1.17;;;;;;;22.96;45.27;94919.75;4994079;28;98992;-61
2021/09/09 05:33:47;;;;;;;0.88;0.88;;;;;;;22.96;45.06;94914.25;4994199;28;96875;-61
2021/09/09 05:36:12;;;;;;;0.93;0.93;;;;;;;23.00;45.26;94917.75;4992936;28;97079;-62
2021/09/09 05:38:38;;;;;;;0.93;0.93;;;;;;;23.01;45.11;94919.31;4994191;28;100313;-62
2021/09/09 05:41:03;;;;;;;0.93;0.93;;;;;;;23.05;44.78;94914.56;4993083;28;98687;-63
2021/09/09 05:43:28;;;;;;;0.90;0.90;;;;;;;22.97;45.20;94907.53;4994396;28;96812;-61
2021/09/09 05:45:54;;;;;;;0.80;0.80;;;;;;;23.07;44.99;94912.16;4995060;28;96889;-63
2021/09/09 05:48:19;;;;;;;0.65;0.60;;;;;;;23.01;45.27;94907.50;4994109;28;99625;-61
2021/09/09 05:50:45;;;;;;;0.60;0.60;;;;;;;23.05;45.36;94916.50;4993845;28;98056;-60
2021/09/09 05:53:10;;;;;;;0.68;0.68;;;;;;;23.06;45.16;94910.59;4993646;28;96860;-62
2021/09/09 05:55:36;;;;;;;0.50;0.50;;;;;;;23.05;45.24;94908.25;4994093;28;97033;-60
2021/09/09 05:58:01;;;;;;;0.82;0.82;;;;;;;23.04;45.31;94907.47;4993740;28;101763;-61
2021/09/09 06:00:27;;;;;;;0.80;0.80;;;;;;;23.06;45.26;94915.31;4993925;28;99307;-62
2021/09/09 06:02:52;;;;;;;0.70;0.70;;;;;;;22.97;45.63;94912.25;4994098;28;96723;-59
2021/09/09 06:05:18;;;;;;;0.70;0.70;;;;;;;22.99;45.38;94910.69;4994391;28;96895;-60
2021/09/09 06:07:44;;;;;;;0.65;0.65;;;;;;;22.93;45.87;94907.59;4993749;28;99458;-61
2021/09/09 06:10:10;;;;;;;0.60;0.60;;;;;;;22.97;45.61;94907.53;4992958;28;99177;-60
2021/09/09 06:12:35;;;;;;;0.75;0.75;;;;;;;22.98;45.69;94909.09;4994110;28;96625;-59
2021/09/09 06:15:02;;;;;;;0.57;0.57;;;;;;;23.04;45.81;94906.69;4992766;28;96956;-60
2021/09/09 06:17:28;;;;;;;0.60;0.60;;;;;;;23.08;45.92;94910.19;4993081;28;99564;-58
2021/09/09 06:19:53;;;;;;;0.60;0.60;;;;;;;22.98;45.83;94903.59;4993108;28;107058;-63
2021/09/09 06:22:19;;;;;;;0.60;0.60;;;;;;;23.07;45.73;94901.16;4993960;28;97072;-62
2021/09/09 06:24:44;;;;;;;0.70;0.70;;;;;;;23.04;45.80;94910.22;4993784;28;96904;-62
2021/09/09 06:27:09;;;;;;;0.50;0.50;;;;;;;23.01;46.02;94908.28;4993315;28;103349;-60
2021/09/09 06:29:35;;;;;;;0.43;0.43;;;;;;;22.96;46.24;94911.50;4993195;28;102060;-62
2021/09/09 06:32:00;;;;;;;0.63;0.63;;;;;;;23.08;45.98;94913.72;4993766;28;96723;-59
2021/09/09 06:34:26;;;;;;;0.60;0.60;;;;;;;22.97;46.10;94901.25;4993366;28;96986;-60
2021/09/09 06:36:51;;;;;;;0.68;0.68;;;;;;;22.95;46.33;94904.41;4993507;28;99254;-60
2021/09/09 06:39:19;;;;;;;0.70;0.70;;;;;;;22.99;46.14;94905.16;4993172;28;99325;-63
2021/09/09 06:41:45;;;;;;;0.50;0.50;;;;;;;23.01;46.50;94908.28;4993026;28;96600;-60
2021/09/09 06:44:13;;;;;;;0.63;0.63;;;;;;;22.99;46.30;94901.63;4993639;28;96893;-62
2021/09/09 06:46:39;;;;;;;0.57;0.57;;;;;;;23.09;46.27;94914.50;4993132;28;99380;-60
2021/09/09 06:49:05;;;;;;;0.57;0.57;;;;;;;23.07;46.35;94912.16;4993428;28;99178;-60
2021/09/09 06:51:31;;;;;;;0.70;0.70;;;;;;;23.03;46.44;94910.63;4993210;28;96781;-60
2021/09/09 06:53:56;;;;;;;0.52;0.52;;;;;;;23.08;46.35;94912.94;4993508;28;96928;-61
2021/09/09 06:56:22;;;;;;;0.60;0.60;;;;;;;23.17;46.32;94923.50;4993019;28;99238;-60
2021/09/09 06:58:47;;;;;;;0.50;0.50;;;;;;;23.07;46.45;94923.19;4993249;28;99542;-62
2021/09/09 07:01:13;;;;;;;0.50;0.50;;;;;;;23.13;46.29;94925.50;4993276;28;96824;-60
2021/09/09 07:03:38;;;;;;;0.75;0.75;;;;;;;23.10;46.61;94927.88;4993134;28;96931;-60
2021/09/09 07:06:04;;;;;;;0.60;0.60;;;;;;;23.12;46.41;94930.22;4992389;28;99483;-60
2021/09/09 07:08:29;;;;;;;0.50;0.50;;;;;;;23.05;46.64;94925.56;4992863;28;99304;-60
2021/09/09 07:10:54;;;;;;;0.57;0.57;;;;;;;23.14;46.47;94933.34;4993211;28;96711;-60
2021/09/09 07:13:21;;;;;;;0.68;0.68;;;;;;;23.17;46.50;94937.25;4993019;28;97017;-60
2021/09/09 07:15:46;;;;;;;0.50;0.50;;;;;;;23.16;46.45;94935.69;4993055;28;99307;-60
2021/09/09 07:18:12;;;;;;;0.50;0.50;;;;;;;23.20;46.42;94933.69;4992466;28;99551;-62
2021/09/09 07:20:37;;;;;;;0.63;0.63;;;;;;;23.21;46.37;94933.28;4993345;28;97039;-60
2021/09/09 07:23:03;;;;;;;0.50;0.50;;;;;;;23.20;46.51;94933.69;4993281;28;96902;-60
2021/09/09 07:25:28;;;;;;;0.50;0.50;;;;;;;23.24;46.31;94942.75;4992531;28;99725;-60
2021/09/09 07:27:53;;;;;;;0.63;0.60;;;;;;;23.22;46.35;94936.81;4992565;28;99056;-61
2021/09/09 07:30:19;;;;;;;0.52;0.52;;;;;;;23.18;46.61;94933.31;4992406;28;97084;-60
2021/09/09 07:32:44;;;;;;;0.52;0.52;;;;;;;23.24;46.66;94942.75;4992064;28;96921;-60
2021/09/09 07:35:10;;;;;;;0.60;0.60;;;;;;;23.19;46.63;94945.91;4992239;28;99557;-60
2021/09/09 07:37:36;;;;;;;0.40;0.40;;;;;;;23.17;46.72;94949.06;4992289;28;98586;-62
2021/09/09 07:40:02;;;;;;;0.57;0.57;;;;;;;23.18;46.50;94949.84;4992773;28;96642;-64
2021/09/09 07:42:27;;;;;;;0.60;0.60;;;;;;;23.10;46.98;94944.41;4992673;28;96858;-60
2021/09/09 07:44:53;;;;;;;0.70;0.70;;;;;;;23.12;46.98;94957.00;4992263;28;103415;-60
2021/09/09 07:47:18;;;;;;;0.50;0.50;;;;;;;23.07;47.16;94956.25;4992937;28;99269;-60
2021/09/09 07:49:43;;;;;;;0.52;0.52;;;;;;;23.07;47.02;94956.25;4992364;28;96710;-62
2021/09/09 07:52:09;;;;;;;0.50;0.50;;;;;;;23.16;47.04;94963.25;4992490;28;96943;-62
2021/09/09 07:54:34;;;;;;;0.50;0.50;;;;;;;23.16;47.04;94966.00;4991613;28;105048;-61
2021/09/09 07:57:00;;;;;;;0.43;0.43;;;;;;;23.14;46.89;94973.91;4992016;28;102805;-61
2021/09/09 07:59:26;;;;;;;0.50;0.50;;;;;;;23.22;46.76;94962.41;4992452;28;96666;-60
2021/09/09 08:01:51;;;;;;;0.47;0.47;;;;;;;23.19;47.05;94965.19;4992273;28;96918;-60
2021/09/09 08:04:17;;;;;;;0.40;0.40;;;;;;;23.19;47.12;94968.72;4993735;28;99554;-60
2021/09/09 08:06:43;;;;;;;0.43;0.43;;;;;;;23.17;47.15;94967.56;4995494;28;99195;-60
2021/09/09 08:09:09;;;;;;;0.40;0.40;;;;;;;23.17;47.01;94971.09;4995955;28;96680;-62
2021/09/09 08:11:34;;;;;;;0.40;0.40;;;;;;;23.25;47.20;94971.84;4996229;28;96972;-60
2021/09/09 08:14:00;;;;;;;0.45;0.45;;;;;;;23.26;46.93;94976.16;4995831;28;99458;-60
2021/09/09 08:16:25;;;;;;;0.40;0.40;;;;;;;23.28;46.81;94976.53;4995220;28;103493;-60
2021/09/09 08:18:51;;;;;;;0.40;0.40;;;;;;;23.31;46.74;94975.72;4994807;28;96793;-60
2021/09/09 08:21:16;;;;;;;0.40;0.40;;;;;;;23.35;46.77;94970.94;4995828;28;96937;-60
2021/09/09 08:23:42;;;;;;;0.52;0.52;;;;;;;23.27;46.94;94963.94;4995500;28;99661;-62
2021/09/09 08:26:08;;;;;;;0.45;0.45;;;;;;;23.34;46.78;94966.63;4995302;28;99300;-60
2021/09/09 08:28:33;;;;;;;0.30;0.30;;;;;;;23.36;46.83;94969.75;4994468;28;96979;-60
2021/09/09 08:30:59;;;;;;;0.45;0.45;;;;;;;23.42;46.74;94969.31;4995745;28;97025;-60
2021/09/09 08:33:25;;;;;;;0.50;0.50;;;;;;;23.38;46.91;94970.13;4994505;28;99787;-62
2021/09/09 08:35:50;;;;;;;0.45;0.45;;;;;;;23.37;46.87;94967.78;4995427;28;99189;-62
2021/09/09 08:38:16;;;;;;;0.30;0.30;;;;;;;23.31;47.02;94969.44;4995465;28;96624;-63
2021/09/09 08:40:41;;;;;;;0.30;0.30;;;;;;;23.24;47.25;94971.06;4995420;28;96959;-60
2021/09/09 08:43:07;;;;;;;0.40;0.40;;;;;;;23.30;47.09;94968.63;4994584;28;99313;-60
2021/09/09 08:45:33;;;;;;;0.40;0.40;;;;;;;23.24;47.27;94964.78;4995082;28;99015;-59
2021/09/09 08:48:01;;;;;;;0.40;0.40;;;;;;;23.35;47.21;94965.44;4995321;28;96652;-60
2021/09/09 08:50:26;;;;;;;0.30;0.30;;;;;;;23.31;47.16;94961.94;4995326;28;96845;-60
2021/09/09 08:52:52;;;;;;;0.40;0.40;;;;;;;23.26;47.40;94962.38;4994915;28;99018;-60
2021/09/09 08:55:19;;;;;;;0.40;0.40;;;;;;;23.27;47.34;94963.94;4993489;28;99304;-60
2021/09/09 08:57:44;;;;;;;0.30;0.30;;;;;;;23.27;47.46;94972.19;4995148;28;96600;-59
2021/09/09 09:00:10;;;;;;;0.40;0.40;;;;;;;23.30;47.42;94965.09;4995668;28;96925;-64
2021/09/09 09:02:55;;;;;;;0.30;0.30;;;;;;;23.25;47.47;94971.84;4994560;28;99658;-60
2021/09/09 09:05:20;;;;;;;0.55;0.55;;;;;;;23.28;47.50;94971.00;4994650;28;99423;-60
2021/09/09 09:07:46;;;;;;;0.40;0.40;;;;;;;23.27;47.43;94966.69;4994698;28;96673;-61
2021/09/09 09:10:11;;;;;;;0.38;0.38;;;;;;;23.25;47.51;94966.34;4995118;28;96925;-60
2021/09/09 09:12:38;;;;;;;0.40;0.40;;;;;;;23.25;47.47;94966.34;4994736;28;99491;-62
2021/09/09 09:15:21;;;;;;;0.38;0.38;;;;;;;23.27;47.65;94974.19;4994229;28;99203;-62
2021/09/09 09:18:11;;;;;;;0.40;0.40;;;;;;;23.33;47.46;94958.78;4994858;28;96688;-62
2021/09/09 09:20:43;;;;;;;0.30;0.30;;;;;;;23.37;47.41;94967.78;4994770;28;96775;-60
2021/09/09 09:23:20;;;;;;;0.30;0.30;;;;;;;23.39;47.39;94968.94;4994422;28;99515;-60
2021/09/09 09:25:49;;;;;;;0.50;0.50;;;;;;;23.31;47.30;94953.66;4994800;28;99538;-60
2021/09/09 09:28:16;;;;;;;0.43;0.43;;;;;;;23.42;47.24;94963.78;4994722;28;96752;-60
2021/09/09 09:31:21;;;;;;;0.32;0.32;;;;;;;23.42;47.20;94956.31;4994559;28;96944;-61
2021/09/09 09:34:07;;;;;;;0.28;0.28;;;;;;;23.39;47.52;94960.66;4912386;28;99818;-62
2021/09/09 09:36:36;;;;;;;0.40;0.40;;;;;;;23.41;47.27;94954.75;4990328;28;99551;-60
2021/09/09 09:39:08;;;;;;;0.50;0.40;;;;;;;23.45;47.36;94946.44;4994754;28;96706;-60
2021/09/09 09:41:35;;;;;;;0.30;0.30;;;;;;;23.45;47.22;94940.91;4994790;28;96941;-60
2021/09/09 09:44:06;;;;;;;0.30;0.30;;;;;;;23.49;47.27;94941.66;4994089;28;99730;-60
2021/09/09 09:46:39;;;;;;;0.30;0.30;;;;;;;23.45;47.15;94938.16;4994175;28;99584;-60
2021/09/09 09:49:28;;;;;;;0.30;0.30;;;;;;;23.45;47.50;94949.19;4994548;28;96906;-60
2021/09/09 09:51:58;;;;;;;0.30;0.30;;;;;;;23.46;47.56;94953.50;4994799;28;96702;-60
2021/09/09 09:54:26;;;;;;;0.20;0.20;;;;;;;23.46;47.45;94948.00;4993942;28;99606;-60
2021/09/09 09:56:52;;;;;;;0.30;0.30;;;;;;;23.45;47.41;94940.91;4994001;28;97746;-60
2021/09/09 09:59:18;;;;;;;0.22;0.22;;;;;;;23.47;47.37;94950.34;4993723;28;96625;-63
2021/09/09 10:01:43;;;;;;;0.20;0.20;;;;;;;23.39;47.59;94938.63;4994894;28;96985;-60
2021/09/09 10:04:16;;;;;;;0.30;0.30;;;;;;;23.44;47.34;94944.88;4993723;28;99045;-60
2021/09/09 10:06:42;;;;;;;0.30;0.30;;;;;;;23.43;47.49;94938.59;4993812;28;98505;-61
2021/09/09 10:09:08;;;;;;;0.30;0.30;;;;;;;23.50;47.51;94932.19;4994197;28;96640;-60
2021/09/09 10:11:33;;;;;;;0.30;0.30;;;;;;;23.52;47.44;94940.84;4994325;28;96913;-60
2021/09/09 10:14:00;;;;;;;0.30;0.30;;;;;;;23.44;47.44;94951.19;4993939;28;99660;-61
2021/09/09 10:16:28;;;;;;;0.40;0.40;;;;;;;23.47;47.40;94938.53;4991871;28;98835;-61
2021/09/09 10:18:53;;;;;;;0.20;0.20;;;;;;;23.42;47.88;94938.97;4992675;28;96892;-60
2021/09/09 10:21:42;;;;;;;0.40;0.40;;;;;;;23.42;47.67;94942.53;4992767;28;96950;-60
2021/09/09 10:24:08;;;;;;;0.30;0.30;;;;;;;23.47;47.70;94938.53;4993203;28;99417;-60
2021/09/09 10:26:34;;;;;;;0.20;0.20;;;;;;;23.43;47.64;94938.59;4993032;28;99154;-60
2021/09/09 10:29:00;;;;;;;0.20;0.20;;;;;;;23.46;47.48;94931.47;4993850;28;96632;-62
2021/09/09 10:31:41;;;;;;;0.20;0.20;;;;;;;23.50;47.55;94934.97;4993904;28;96930;-60
2021/09/09 10:34:20;;;;;;;0.50;0.30;;;;;;;23.49;47.72;94930.63;4992036;28;99800;-60
2021/09/09 10:36:46;;;;;;;0.30;0.30;;;;;;;23.42;47.65;94933.47;4992024;28;99187;-60
2021/09/09 10:39:12;;;;;;;1.00;0.30;;;;;;;23.42;47.69;94934.28;4993882;28;96553;-61
2021/09/09 10:41:38;;;;;;;0.32;0.32;;;;;;;23.38;47.91;94931.53;4994091;28;96969;-60
2021/09/09 10:44:07;;;;;;;0.30;0.30;;;;;;;23.44;48.01;94931.09;4993214;28;99533;-62
2021/09/09 10:46:36;;;;;;;3.20;0.50;;;;;;;23.47;47.82;94917.28;4993136;28;99225;-60
2021/09/09 10:49:09;;;;;;;0.30;0.30;;;;;;;23.49;47.67;94928.69;4993073;28;96692;-60
2021/09/09 10:51:34;;;;;;;0.25;0.25;;;;;;;23.49;47.89;94919.59;4993447;28;96968;-62
2021/09/09 10:54:00;;;;;;;0.30;0.30;;;;;;;23.50;47.80;94918.41;4993132;28;99338;-59
2021/09/09 10:56:27;;;;;;;0.20;0.20;;;;;;;23.49;47.80;94919.59;4992993;28;99302;-60
2021/09/09 10:59:18;;;;;;;0.20;0.20;;;;;;;23.52;47.67;94918.78;4993323;28;96757;-59
2021/09/09 11:01:45;;;;;;;0.30;0.30;;;;;;;23.50;47.56;94921.97;4992067;28;96884;-60
2021/09/09 11:04:32;;;;;;;0.30;0.30;;;;;;;23.51;47.70;94920.78;4975499;28;101620;-61
2021/09/09 11:06:58;;;;;;;0.30;0.30;;;;;;;23.56;47.62;94918.72;4993311;28;98790;-61
2021/09/09 11:09:24;;;;;;;0.20;0.20;;;;;;;23.59;47.74;94918.72;4992375;28;96739;-61
2021/09/09 11:12:16;;;;;;;0.28;0.28;;;;;;;23.63;47.59;94919.44;4992090;28;96905;-60
2021/09/09 11:14:42;;;;;;;0.30;0.30;;;;;;;23.65;47.49;94911.53;4988390;28;99553;-61
2021/09/09 11:17:07;;;;;;;0.22;0.22;;;;;;;23.64;47.48;94921.00;4992814;28;99542;-62
2021/09/09 11:19:34;;;;;;;0.30;0.30;;;;;;;23.64;47.42;94915.50;4975190;28;96933;-61
2021/09/09 11:22:00;;;;;;;0.20;0.20;;;;;;;23.69;47.32;94895.72;4991819;28;96929;-60
2021/09/09 11:24:26;;;;;;;0.30;0.30;;;;;;;23.75;47.27;94898.03;4992769;28;100059;-60
2021/09/09 11:26:52;;;;;;;0.30;0.30;;;;;;;23.78;47.18;94909.00;4991467;28;99179;-62
2021/09/09 11:29:22;;;;;;;0.30;0.30;;;;;;;23.78;47.11;94897.22;4993074;28;97400;-60